sensor_id;sensor_type;location;lat;lon;timestamp;temperature;humidity
72650;SHT31;61467;50.674;4.618;2024-03-07T00:02:09;8.74;65.70
72650;SHT31;61467;50.674;4.618;2024-03-07T00:04:36;8.72;65.83
72650;SHT31;61467;50.674;4.618;2024-03-07T00:07:03;8.70;65.71
72650;SHT31;61467;50.674;4.618;2024-03-07T00:09:32;8.72;65.77
72650;SHT31;61467;50.674;4.618;2024-03-07T00:12:00;8.66;65.93
72650;SHT31;61467;50.674;4.618;2024-03-07T00:14:27;8.65;66.04
72650;SHT31;61467;50.674;4.618;2024-03-07T00:16:54;8.60;66.10
72650;SHT31;61467;50.674;4.618;2024-03-07T00:19:22;8.62;66.21
72650;SHT31;61467;50.674;4.618;2024-03-07T00:21:52;8.56;66.40
72650;SHT31;61467;50.674;4.618;2024-03-07T00:24:19;8.56;66.63
72650;SHT31;61467;50.674;4.618;2024-03-07T00:26:47;8.49;66.83
72650;SHT31;61467;50.674;4.618;2024-03-07T00:29:15;8.45;66.86
72650;SHT31;61467;50.674;4.618;2024-03-07T00:31:43;8.43;66.87
72650;SHT31;61467;50.674;4.618;2024-03-07T00:34:11;8.41;66.94
72650;SHT31;61467;50.674;4.618;2024-03-07T00:36:39;8.41;67.09
72650;SHT31;61467;50.674;4.618;2024-03-07T00:39:06;8.36;67.23
72650;SHT31;61467;50.674;4.618;2024-03-07T00:41:33;8.43;67.30
72650;SHT31;61467;50.674;4.618;2024-03-07T00:44:02;8.42;67.40
72650;SHT31;61467;50.674;4.618;2024-03-07T00:46:29;8.41;67.56
72650;SHT31;61467;50.674;4.618;2024-03-07T00:48:56;8.45;67.76
72650;SHT31;61467;50.674;4.618;2024-03-07T00:51:23;8.41;67.93
72650;SHT31;61467;50.674;4.618;2024-03-07T00:53:50;8.46;67.94
72650;SHT31;61467;50.674;4.618;2024-03-07T00:56:17;8.45;68.34
72650;SHT31;61467;50.674;4.618;2024-03-07T00:58:44;8.48;68.47
72650;SHT31;61467;50.674;4.618;2024-03-07T01:01:13;8.49;68.51
72650;SHT31;61467;50.674;4.618;2024-03-07T01:03:41;8.52;68.68
72650;SHT31;61467;50.674;4.618;2024-03-07T01:06:08;8.50;68.79
72650;SHT31;61467;50.674;4.618;2024-03-07T01:08:35;8.52;68.67
72650;SHT31;61467;50.674;4.618;2024-03-07T01:11:03;8.50;68.67
72650;SHT31;61467;50.674;4.618;2024-03-07T01:13:35;8.55;68.67
72650;SHT31;61467;50.674;4.618;2024-03-07T01:16:02;8.59;68.75
72650;SHT31;61467;50.674;4.618;2024-03-07T01:18:30;8.60;68.69
72650;SHT31;61467;50.674;4.618;2024-03-07T01:20:58;8.57;68.84
72650;SHT31;61467;50.674;4.618;2024-03-07T01:23:25;8.55;68.88
72650;SHT31;61467;50.674;4.618;2024-03-07T01:25:54;8.50;68.86
72650;SHT31;61467;50.674;4.618;2024-03-07T01:28:22;8.43;69.16
72650;SHT31;61467;50.674;4.618;2024-03-07T01:30:49;8.46;69.27
72650;SHT31;61467;50.674;4.618;2024-03-07T01:33:16;8.36;69.38
72650;SHT31;61467;50.674;4.618;2024-03-07T01:35:44;8.38;69.58
72650;SHT31;61467;50.674;4.618;2024-03-07T01:38:11;8.41;69.63
72650;SHT31;61467;50.674;4.618;2024-03-07T01:40:39;8.36;69.86
72650;SHT31;61467;50.674;4.618;2024-03-07T01:43:06;8.38;70.26
72650;SHT31;61467;50.674;4.618;2024-03-07T01:45:33;8.31;70.37
72650;SHT31;61467;50.674;4.618;2024-03-07T01:48:02;8.25;70.48
72650;SHT31;61467;50.674;4.618;2024-03-07T01:50:29;8.25;70.87
72650;SHT31;61467;50.674;4.618;2024-03-07T01:52:59;8.28;70.74
72650;SHT31;61467;50.674;4.618;2024-03-07T01:55:27;8.25;70.72
72650;SHT31;61467;50.674;4.618;2024-03-07T01:57:56;8.24;70.64
72650;SHT31;61467;50.674;4.618;2024-03-07T02:00:25;8.21;70.64
72650;SHT31;61467;50.674;4.618;2024-03-07T02:02:53;8.14;70.99
72650;SHT31;61467;50.674;4.618;2024-03-07T02:05:20;8.08;71.09
72650;SHT31;61467;50.674;4.618;2024-03-07T02:07:47;8.08;71.36
72650;SHT31;61467;50.674;4.618;2024-03-07T02:10:16;8.06;71.49
72650;SHT31;61467;50.674;4.618;2024-03-07T02:12:44;7.91;71.95
72650;SHT31;61467;50.674;4.618;2024-03-07T02:15:11;7.91;71.95
72650;SHT31;61467;50.674;4.618;2024-03-07T02:17:39;7.95;71.87
72650;SHT31;61467;50.674;4.618;2024-03-07T02:20:08;7.88;72.00
72650;SHT31;61467;50.674;4.618;2024-03-07T02:22:37;7.88;72.18
72650;SHT31;61467;50.674;4.618;2024-03-07T02:25:05;7.84;72.34
72650;SHT31;61467;50.674;4.618;2024-03-07T02:27:35;7.83;72.42
72650;SHT31;61467;50.674;4.618;2024-03-07T02:30:02;7.84;72.44
72650;SHT31;61467;50.674;4.618;2024-03-07T02:32:31;7.85;72.22
72650;SHT31;61467;50.674;4.618;2024-03-07T02:34:58;7.81;72.38
72650;SHT31;61467;50.674;4.618;2024-03-07T02:37:25;7.80;72.58
72650;SHT31;61467;50.674;4.618;2024-03-07T02:39:54;7.75;72.71
72650;SHT31;61467;50.674;4.618;2024-03-07T02:42:20;7.77;72.81
72650;SHT31;61467;50.674;4.618;2024-03-07T02:44:47;7.74;73.04
72650;SHT31;61467;50.674;4.618;2024-03-07T02:47:14;7.70;73.18
72650;SHT31;61467;50.674;4.618;2024-03-07T02:49:43;7.70;73.27
72650;SHT31;61467;50.674;4.618;2024-03-07T02:52:10;7.70;73.27
72650;SHT31;61467;50.674;4.618;2024-03-07T02:54:36;7.69;73.39
72650;SHT31;61467;50.674;4.618;2024-03-07T02:57:05;7.71;73.52
72650;SHT31;61467;50.674;4.618;2024-03-07T02:59:32;7.66;73.48
72650;SHT31;61467;50.674;4.618;2024-03-07T03:01:59;7.59;73.24
72650;SHT31;61467;50.674;4.618;2024-03-07T03:04:25;7.54;73.61
72650;SHT31;61467;50.674;4.618;2024-03-07T03:06:52;7.54;73.63
72650;SHT31;61467;50.674;4.618;2024-03-07T03:09:19;7.60;73.71
72650;SHT31;61467;50.674;4.618;2024-03-07T03:11:47;7.54;73.83
72650;SHT31;61467;50.674;4.618;2024-03-07T03:14:15;7.56;73.90
72650;SHT31;61467;50.674;4.618;2024-03-07T03:16:42;7.54;73.88
72650;SHT31;61467;50.674;4.618;2024-03-07T03:19:09;7.53;74.25
72650;SHT31;61467;50.674;4.618;2024-03-07T03:21:36;7.46;74.48
72650;SHT31;61467;50.674;4.618;2024-03-07T03:24:03;7.49;74.63
72650;SHT31;61467;50.674;4.618;2024-03-07T03:26:32;7.46;74.59
72650;SHT31;61467;50.674;4.618;2024-03-07T03:28:59;7.43;74.51
72650;SHT31;61467;50.674;4.618;2024-03-07T03:31:27;7.49;74.90
72650;SHT31;61467;50.674;4.618;2024-03-07T03:33:54;7.40;74.71
72650;SHT31;61467;50.674;4.618;2024-03-07T03:36:21;7.44;74.76
72650;SHT31;61467;50.674;4.618;2024-03-07T03:38:48;7.46;74.41
72650;SHT31;61467;50.674;4.618;2024-03-07T03:41:15;7.43;74.43
72650;SHT31;61467;50.674;4.618;2024-03-07T03:43:42;7.42;74.59
72650;SHT31;61467;50.674;4.618;2024-03-07T03:46:09;7.43;74.74
72650;SHT31;61467;50.674;4.618;2024-03-07T03:48:39;7.34;74.87
72650;SHT31;61467;50.674;4.618;2024-03-07T03:51:07;7.37;74.92
72650;SHT31;61467;50.674;4.618;2024-03-07T03:53:34;7.32;74.90
72650;SHT31;61467;50.674;4.618;2024-03-07T03:56:02;7.37;74.81
72650;SHT31;61467;50.674;4.618;2024-03-07T03:58:30;7.32;75.01
72650;SHT31;61467;50.674;4.618;2024-03-07T04:00:57;7.23;75.31
72650;SHT31;61467;50.674;4.618;2024-03-07T04:03:25;7.19;75.78
72650;SHT31;61467;50.674;4.618;2024-03-07T04:05:54;7.03;76.11
72650;SHT31;61467;50.674;4.618;2024-03-07T04:08:21;7.11;76.07
72650;SHT31;61467;50.674;4.618;2024-03-07T04:10:48;7.05;76.24
72650;SHT31;61467;50.674;4.618;2024-03-07T04:13:15;7.08;76.25
72650;SHT31;61467;50.674;4.618;2024-03-07T04:15:42;7.11;76.61
72650;SHT31;61467;50.674;4.618;2024-03-07T04:18:09;7.06;76.49
72650;SHT31;61467;50.674;4.618;2024-03-07T04:20:36;7.01;76.96
72650;SHT31;61467;50.674;4.618;2024-03-07T04:23:04;6.98;76.86
72650;SHT31;61467;50.674;4.618;2024-03-07T04:25:31;6.96;76.93
72650;SHT31;61467;50.674;4.618;2024-03-07T04:27:58;6.92;76.85
72650;SHT31;61467;50.674;4.618;2024-03-07T04:30:25;6.96;76.89
72650;SHT31;61467;50.674;4.618;2024-03-07T04:32:52;6.95;76.90
72650;SHT31;61467;50.674;4.618;2024-03-07T04:35:19;6.94;76.88
72650;SHT31;61467;50.674;4.618;2024-03-07T04:37:47;6.72;76.88
72650;SHT31;61467;50.674;4.618;2024-03-07T04:40:15;6.65;77.57
72650;SHT31;61467;50.674;4.618;2024-03-07T04:42:43;6.65;77.69
72650;SHT31;61467;50.674;4.618;2024-03-07T04:45:10;6.68;77.69
72650;SHT31;61467;50.674;4.618;2024-03-07T04:47:38;6.71;77.60
72650;SHT31;61467;50.674;4.618;2024-03-07T04:50:06;6.71;77.66
72650;SHT31;61467;50.674;4.618;2024-03-07T04:52:36;6.30;78.93
72650;SHT31;61467;50.674;4.618;2024-03-07T04:55:03;6.48;78.81
72650;SHT31;61467;50.674;4.618;2024-03-07T04:57:32;6.55;78.47
72650;SHT31;61467;50.674;4.618;2024-03-07T04:59:58;6.58;78.47
72650;SHT31;61467;50.674;4.618;2024-03-07T05:02:25;6.45;78.69
72650;SHT31;61467;50.674;4.618;2024-03-07T05:04:52;6.47;78.92
72650;SHT31;61467;50.674;4.618;2024-03-07T05:07:19;6.54;78.75
72650;SHT31;61467;50.674;4.618;2024-03-07T05:09:46;6.55;78.70
72650;SHT31;61467;50.674;4.618;2024-03-07T05:12:14;6.44;79.17
72650;SHT31;61467;50.674;4.618;2024-03-07T05:14:42;6.36;79.32
72650;SHT31;61467;50.674;4.618;2024-03-07T05:17:10;6.24;79.93
72650;SHT31;61467;50.674;4.618;2024-03-07T05:19:37;6.05;80.72
72650;SHT31;61467;50.674;4.618;2024-03-07T05:22:04;6.12;82.25
72650;SHT31;61467;50.674;4.618;2024-03-07T05:24:32;6.20;81.32
72650;SHT31;61467;50.674;4.618;2024-03-07T05:26:59;6.32;80.35
72650;SHT31;61467;50.674;4.618;2024-03-07T05:29:26;6.24;80.09
72650;SHT31;61467;50.674;4.618;2024-03-07T05:31:54;5.86;81.71
72650;SHT31;61467;50.674;4.618;2024-03-07T05:34:21;5.91;81.89
72650;SHT31;61467;50.674;4.618;2024-03-07T05:36:49;5.86;81.70
72650;SHT31;61467;50.674;4.618;2024-03-07T05:39:16;6.03;81.69
72650;SHT31;61467;50.674;4.618;2024-03-07T05:41:44;5.95;81.71
72650;SHT31;61467;50.674;4.618;2024-03-07T05:44:11;5.82;81.86
72650;SHT31;61467;50.674;4.618;2024-03-07T05:46:38;5.98;81.93
72650;SHT31;61467;50.674;4.618;2024-03-07T05:49:13;6.01;81.82
72650;SHT31;61467;50.674;4.618;2024-03-07T05:51:40;6.10;81.68
72650;SHT31;61467;50.674;4.618;2024-03-07T05:54:10;6.10;81.39
72650;SHT31;61467;50.674;4.618;2024-03-07T05:56:39;6.12;81.55
72650;SHT31;61467;50.674;4.618;2024-03-07T05:59:06;6.19;82.67
72650;SHT31;61467;50.674;4.618;2024-03-07T06:01:35;6.53;82.07
72650;SHT31;61467;50.674;4.618;2024-03-07T06:04:03;6.70;81.81
72650;SHT31;61467;50.674;4.618;2024-03-07T06:06:33;6.70;79.63
72650;SHT31;61467;50.674;4.618;2024-03-07T06:09:01;6.50;80.04
72650;SHT31;61467;50.674;4.618;2024-03-07T06:11:33;6.47;80.16
72650;SHT31;61467;50.674;4.618;2024-03-07T06:14:00;6.51;80.04
72650;SHT31;61467;50.674;4.618;2024-03-07T06:16:29;6.29;80.72
72650;SHT31;61467;50.674;4.618;2024-03-07T06:18:58;6.07;81.27
72650;SHT31;61467;50.674;4.618;2024-03-07T06:21:25;5.96;81.83
72650;SHT31;61467;50.674;4.618;2024-03-07T06:23:53;6.06;81.60
72650;SHT31;61467;50.674;4.618;2024-03-07T06:26:25;5.91;81.92
72650;SHT31;61467;50.674;4.618;2024-03-07T06:29:03;5.92;82.29
72650;SHT31;61467;50.674;4.618;2024-03-07T06:31:30;5.85;82.64
72650;SHT31;61467;50.674;4.618;2024-03-07T06:33:57;5.59;82.39
72650;SHT31;61467;50.674;4.618;2024-03-07T06:36:24;5.81;82.73
72650;SHT31;61467;50.674;4.618;2024-03-07T06:38:53;5.71;82.88
72650;SHT31;61467;50.674;4.618;2024-03-07T06:41:19;5.88;82.58
72650;SHT31;61467;50.674;4.618;2024-03-07T06:43:46;5.92;82.02
72650;SHT31;61467;50.674;4.618;2024-03-07T06:46:15;5.85;82.23
72650;SHT31;61467;50.674;4.618;2024-03-07T06:48:42;5.86;82.27
72650;SHT31;61467;50.674;4.618;2024-03-07T06:51:09;5.98;81.99
72650;SHT31;61467;50.674;4.618;2024-03-07T06:53:36;5.96;81.82
72650;SHT31;61467;50.674;4.618;2024-03-07T06:56:06;6.12;81.62
72650;SHT31;61467;50.674;4.618;2024-03-07T06:58:33;5.95;82.00
72650;SHT31;61467;50.674;4.618;2024-03-07T07:01:00;5.96;81.58
72650;SHT31;61467;50.674;4.618;2024-03-07T07:03:27;5.85;81.96
72650;SHT31;61467;50.674;4.618;2024-03-07T07:05:54;5.78;82.16
72650;SHT31;61467;50.674;4.618;2024-03-07T07:08:21;5.71;82.51
72650;SHT31;61467;50.674;4.618;2024-03-07T07:10:49;5.91;82.16
72650;SHT31;61467;50.674;4.618;2024-03-07T07:13:17;5.86;81.90
72650;SHT31;61467;50.674;4.618;2024-03-07T07:15:44;5.66;82.18
72650;SHT31;61467;50.674;4.618;2024-03-07T07:18:11;5.64;82.61
72650;SHT31;61467;50.674;4.618;2024-03-07T07:20:39;5.68;83.00
72650;SHT31;61467;50.674;4.618;2024-03-07T07:23:05;5.50;82.77
72650;SHT31;61467;50.674;4.618;2024-03-07T07:25:33;5.41;83.90
72650;SHT31;61467;50.674;4.618;2024-03-07T07:28:00;5.37;83.70
72650;SHT31;61467;50.674;4.618;2024-03-07T07:30:28;5.41;83.72
72650;SHT31;61467;50.674;4.618;2024-03-07T07:32:55;5.52;83.74
72650;SHT31;61467;50.674;4.618;2024-03-07T07:35:22;5.73;83.35
72650;SHT31;61467;50.674;4.618;2024-03-07T07:37:50;5.88;82.68
72650;SHT31;61467;50.674;4.618;2024-03-07T07:40:20;5.98;82.25
72650;SHT31;61467;50.674;4.618;2024-03-07T07:42:49;5.79;82.63
72650;SHT31;61467;50.674;4.618;2024-03-07T07:45:17;5.76;82.84
72650;SHT31;61467;50.674;4.618;2024-03-07T07:47:47;5.85;82.76
72650;SHT31;61467;50.674;4.618;2024-03-07T07:50:16;5.71;83.65
72650;SHT31;61467;50.674;4.618;2024-03-07T07:52:45;5.85;83.52
72650;SHT31;61467;50.674;4.618;2024-03-07T07:55:13;5.93;83.05
72650;SHT31;61467;50.674;4.618;2024-03-07T07:57:42;6.06;82.85
72650;SHT31;61467;50.674;4.618;2024-03-07T08:00:12;6.16;82.44
72650;SHT31;61467;50.674;4.618;2024-03-07T08:02:52;6.02;82.55
72650;SHT31;61467;50.674;4.618;2024-03-07T08:05:20;6.07;82.30
72650;SHT31;61467;50.674;4.618;2024-03-07T08:07:48;6.03;81.95
72650;SHT31;61467;50.674;4.618;2024-03-07T08:10:17;6.03;82.24
72650;SHT31;61467;50.674;4.618;2024-03-07T08:12:44;6.05;81.65
72650;SHT31;61467;50.674;4.618;2024-03-07T08:15:11;5.99;81.83
72650;SHT31;61467;50.674;4.618;2024-03-07T08:17:42;6.03;81.60
72650;SHT31;61467;50.674;4.618;2024-03-07T08:20:14;6.06;81.74
72650;SHT31;61467;50.674;4.618;2024-03-07T08:22:42;5.88;82.08
72650;SHT31;61467;50.674;4.618;2024-03-07T08:25:10;5.72;82.68
72650;SHT31;61467;50.674;4.618;2024-03-07T08:27:38;5.95;82.38
72650;SHT31;61467;50.674;4.618;2024-03-07T08:30:08;5.92;82.54
72650;SHT31;61467;50.674;4.618;2024-03-07T08:32:38;6.14;81.82
72650;SHT31;61467;50.674;4.618;2024-03-07T08:35:06;6.27;81.46
72650;SHT31;61467;50.674;4.618;2024-03-07T08:37:37;6.34;80.75
72650;SHT31;61467;50.674;4.618;2024-03-07T08:40:05;6.41;80.47
72650;SHT31;61467;50.674;4.618;2024-03-07T08:42:34;6.07;81.34
72650;SHT31;61467;50.674;4.618;2024-03-07T08:45:01;6.26;80.98
72650;SHT31;61467;50.674;4.618;2024-03-07T08:47:30;6.09;81.48
72650;SHT31;61467;50.674;4.618;2024-03-07T08:49:57;6.22;81.42
72650;SHT31;61467;50.674;4.618;2024-03-07T08:52:24;6.40;81.30
72650;SHT31;61467;50.674;4.618;2024-03-07T08:54:53;6.48;80.99
72650;SHT31;61467;50.674;4.618;2024-03-07T08:57:20;6.30;80.52
72650;SHT31;61467;50.674;4.618;2024-03-07T08:59:47;6.06;81.18
72650;SHT31;61467;50.674;4.618;2024-03-07T09:02:14;6.23;81.48
72650;SHT31;61467;50.674;4.618;2024-03-07T09:04:41;6.38;80.92
72650;SHT31;61467;50.674;4.618;2024-03-07T09:07:08;6.47;80.17
72650;SHT31;61467;50.674;4.618;2024-03-07T09:09:35;6.07;81.28
72650;SHT31;61467;50.674;4.618;2024-03-07T09:12:04;6.26;81.25
72650;SHT31;61467;50.674;4.618;2024-03-07T09:14:31;6.34;81.46
72650;SHT31;61467;50.674;4.618;2024-03-07T09:16:58;6.22;81.65
72650;SHT31;61467;50.674;4.618;2024-03-07T09:19:25;6.16;82.11
72650;SHT31;61467;50.674;4.618;2024-03-07T09:21:52;6.12;81.71
72650;SHT31;61467;50.674;4.618;2024-03-07T09:24:20;6.37;81.17
72650;SHT31;61467;50.674;4.618;2024-03-07T09:26:48;6.38;81.21
72650;SHT31;61467;50.674;4.618;2024-03-07T09:29:17;6.38;81.14
72650;SHT31;61467;50.674;4.618;2024-03-07T09:31:44;6.30;81.22
72650;SHT31;61467;50.674;4.618;2024-03-07T09:34:11;6.53;80.78
72650;SHT31;61467;50.674;4.618;2024-03-07T09:36:38;6.55;80.48
72650;SHT31;61467;50.674;4.618;2024-03-07T09:39:07;6.38;80.69
72650;SHT31;61467;50.674;4.618;2024-03-07T09:41:34;6.75;79.99
72650;SHT31;61467;50.674;4.618;2024-03-07T09:44:02;6.60;79.57
72650;SHT31;61467;50.674;4.618;2024-03-07T09:46:30;6.72;79.69
72650;SHT31;61467;50.674;4.618;2024-03-07T09:48:58;6.74;80.25
72650;SHT31;61467;50.674;4.618;2024-03-07T09:51:25;6.94;80.00
72650;SHT31;61467;50.674;4.618;2024-03-07T09:53:53;6.88;79.85
72650;SHT31;61467;50.674;4.618;2024-03-07T09:56:23;6.84;79.98
72650;SHT31;61467;50.674;4.618;2024-03-07T09:58:50;6.84;80.06
72650;SHT31;61467;50.674;4.618;2024-03-07T10:01:20;7.05;79.67
72650;SHT31;61467;50.674;4.618;2024-03-07T10:03:50;6.58;81.20
72650;SHT31;61467;50.674;4.618;2024-03-07T10:06:19;6.77;80.45
72650;SHT31;61467;50.674;4.618;2024-03-07T10:08:47;6.99;79.90
72650;SHT31;61467;50.674;4.618;2024-03-07T10:11:15;7.29;79.77
72650;SHT31;61467;50.674;4.618;2024-03-07T10:13:42;7.42;79.34
72650;SHT31;61467;50.674;4.618;2024-03-07T10:16:12;7.49;78.88
72650;SHT31;61467;50.674;4.618;2024-03-07T10:18:42;7.50;78.58
72650;SHT31;61467;50.674;4.618;2024-03-07T10:21:13;7.33;78.93
72650;SHT31;61467;50.674;4.618;2024-03-07T10:23:40;7.60;78.38
72650;SHT31;61467;50.674;4.618;2024-03-07T10:26:07;7.63;78.01
72650;SHT31;61467;50.674;4.618;2024-03-07T10:28:35;7.67;78.15
72650;SHT31;61467;50.674;4.618;2024-03-07T10:31:02;7.60;78.12
72650;SHT31;61467;50.674;4.618;2024-03-07T10:33:36;7.74;78.04
72650;SHT31;61467;50.674;4.618;2024-03-07T10:36:05;7.78;77.87
72650;SHT31;61467;50.674;4.618;2024-03-07T10:38:37;7.75;77.91
72650;SHT31;61467;50.674;4.618;2024-03-07T10:41:05;7.84;77.86
72650;SHT31;61467;50.674;4.618;2024-03-07T10:43:36;8.20;77.32
72650;SHT31;61467;50.674;4.618;2024-03-07T10:46:10;8.05;77.36
72650;SHT31;61467;50.674;4.618;2024-03-07T10:48:39;8.39;77.30
72650;SHT31;61467;50.674;4.618;2024-03-07T10:51:13;8.49;76.21
72650;SHT31;61467;50.674;4.618;2024-03-07T10:53:49;8.76;75.42
72650;SHT31;61467;50.674;4.618;2024-03-07T10:56:38;8.63;75.09
72650;SHT31;61467;50.674;4.618;2024-03-07T10:59:16;8.93;74.73
72650;SHT31;61467;50.674;4.618;2024-03-07T11:01:49;9.17;74.44
72650;SHT31;61467;50.674;4.618;2024-03-07T11:04:17;9.13;73.78
72650;SHT31;61467;50.674;4.618;2024-03-07T11:06:47;9.14;73.84
72650;SHT31;61467;50.674;4.618;2024-03-07T11:09:16;9.34;73.70
72650;SHT31;61467;50.674;4.618;2024-03-07T11:11:49;9.39;73.73
72650;SHT31;61467;50.674;4.618;2024-03-07T11:14:17;9.63;71.98
72650;SHT31;61467;50.674;4.618;2024-03-07T11:16:46;9.76;71.22
72650;SHT31;61467;50.674;4.618;2024-03-07T11:19:24;9.85;70.49
72650;SHT31;61467;50.674;4.618;2024-03-07T11:21:53;10.09;70.15
72650;SHT31;61467;50.674;4.618;2024-03-07T11:24:26;10.14;70.26
72650;SHT31;61467;50.674;4.618;2024-03-07T11:26:55;10.14;69.88
72650;SHT31;61467;50.674;4.618;2024-03-07T11:29:46;10.34;69.03
72650;SHT31;61467;50.674;4.618;2024-03-07T11:32:14;10.41;68.44
72650;SHT31;61467;50.674;4.618;2024-03-07T11:34:42;10.37;67.80
72650;SHT31;61467;50.674;4.618;2024-03-07T11:37:17;10.16;67.55
72650;SHT31;61467;50.674;4.618;2024-03-07T11:39:49;10.32;67.33
72650;SHT31;61467;50.674;4.618;2024-03-07T11:42:25;10.34;67.58
72650;SHT31;61467;50.674;4.618;2024-03-07T11:44:54;10.38;68.13
72650;SHT31;61467;50.674;4.618;2024-03-07T11:47:22;10.45;67.43
72650;SHT31;61467;50.674;4.618;2024-03-07T11:49:50;10.36;67.49
72650;SHT31;61467;50.674;4.618;2024-03-07T11:52:18;10.51;67.77
72650;SHT31;61467;50.674;4.618;2024-03-07T11:54:46;10.26;67.45
72650;SHT31;61467;50.674;4.618;2024-03-07T11:57:15;10.13;66.51
72650;SHT31;61467;50.674;4.618;2024-03-07T11:59:42;10.12;66.91
72650;SHT31;61467;50.674;4.618;2024-03-07T12:02:14;10.29;66.38
72650;SHT31;61467;50.674;4.618;2024-03-07T12:04:43;10.30;64.85
72650;SHT31;61467;50.674;4.618;2024-03-07T12:07:10;10.04;64.50
72650;SHT31;61467;50.674;4.618;2024-03-07T12:09:37;10.10;64.48
72650;SHT31;61467;50.674;4.618;2024-03-07T12:12:05;10.17;64.50
72650;SHT31;61467;50.674;4.618;2024-03-07T12:14:34;10.20;63.12
72650;SHT31;61467;50.674;4.618;2024-03-07T12:17:01;10.23;63.28
72650;SHT31;61467;50.674;4.618;2024-03-07T12:19:30;10.27;63.53
72650;SHT31;61467;50.674;4.618;2024-03-07T12:22:00;10.44;63.20
72650;SHT31;61467;50.674;4.618;2024-03-07T12:24:28;10.55;62.89
72650;SHT31;61467;50.674;4.618;2024-03-07T12:27:05;10.82;61.83
72650;SHT31;61467;50.674;4.618;2024-03-07T12:29:33;10.85;60.87
72650;SHT31;61467;50.674;4.618;2024-03-07T12:32:04;10.99;61.23
72650;SHT31;61467;50.674;4.618;2024-03-07T12:34:32;11.04;59.59
72650;SHT31;61467;50.674;4.618;2024-03-07T12:37:02;11.09;59.30
72650;SHT31;61467;50.674;4.618;2024-03-07T12:39:32;11.08;61.23
72650;SHT31;61467;50.674;4.618;2024-03-07T12:42:02;11.04;60.74
72650;SHT31;61467;50.674;4.618;2024-03-07T12:44:40;11.06;59.53
72650;SHT31;61467;50.674;4.618;2024-03-07T12:47:10;10.71;60.71
72650;SHT31;61467;50.674;4.618;2024-03-07T12:49:37;10.65;60.81
72650;SHT31;61467;50.674;4.618;2024-03-07T12:52:05;10.63;60.80
72650;SHT31;61467;50.674;4.618;2024-03-07T12:54:34;10.96;60.49
72650;SHT31;61467;50.674;4.618;2024-03-07T12:57:03;10.98;61.03
72650;SHT31;61467;50.674;4.618;2024-03-07T12:59:31;10.95;60.15
72650;SHT31;61467;50.674;4.618;2024-03-07T13:02:00;11.15;60.24
72650;SHT31;61467;50.674;4.618;2024-03-07T13:04:28;11.09;60.20
72650;SHT31;61467;50.674;4.618;2024-03-07T13:06:55;11.04;59.50
72650;SHT31;61467;50.674;4.618;2024-03-07T13:09:25;11.04;59.10
72650;SHT31;61467;50.674;4.618;2024-03-07T13:11:53;11.26;58.49
72650;SHT31;61467;50.674;4.618;2024-03-07T13:14:20;11.29;57.69
72650;SHT31;61467;50.674;4.618;2024-03-07T13:16:47;11.46;57.60
72650;SHT31;61467;50.674;4.618;2024-03-07T13:19:17;11.49;57.28
72650;SHT31;61467;50.674;4.618;2024-03-07T13:21:46;11.47;56.08
72650;SHT31;61467;50.674;4.618;2024-03-07T13:24:14;11.53;55.62
72650;SHT31;61467;50.674;4.618;2024-03-07T13:26:43;11.80;55.56
72650;SHT31;61467;50.674;4.618;2024-03-07T13:29:10;11.75;55.80
72650;SHT31;61467;50.674;4.618;2024-03-07T13:31:37;11.83;55.52
72650;SHT31;61467;50.674;4.618;2024-03-07T13:34:05;11.67;54.03
72650;SHT31;61467;50.674;4.618;2024-03-07T13:36:40;11.81;54.74
72650;SHT31;61467;50.674;4.618;2024-03-07T13:39:07;11.80;54.55
72650;SHT31;61467;50.674;4.618;2024-03-07T13:41:37;11.66;54.72
72650;SHT31;61467;50.674;4.618;2024-03-07T13:44:04;11.71;54.15
72650;SHT31;61467;50.674;4.618;2024-03-07T13:46:31;11.83;54.58
72650;SHT31;61467;50.674;4.618;2024-03-07T13:48:58;11.91;54.67
72650;SHT31;61467;50.674;4.618;2024-03-07T13:51:33;11.64;54.76
72650;SHT31;61467;50.674;4.618;2024-03-07T13:54:02;11.97;55.03
72650;SHT31;61467;50.674;4.618;2024-03-07T13:56:59;11.84;54.52
72650;SHT31;61467;50.674;4.618;2024-03-07T14:06:02;11.97;52.77
72650;SHT31;61467;50.674;4.618;2024-03-07T14:08:53;12.10;53.47
72650;SHT31;61467;50.674;4.618;2024-03-07T14:11:49;12.04;52.35
72650;SHT31;61467;50.674;4.618;2024-03-07T14:14:41;12.11;52.36
72650;SHT31;61467;50.674;4.618;2024-03-07T14:17:33;12.24;52.42
72650;SHT31;61467;50.674;4.618;2024-03-07T14:20:40;11.97;51.16
72650;SHT31;61467;50.674;4.618;2024-03-07T14:23:24;12.24;51.40
72650;SHT31;61467;50.674;4.618;2024-03-07T14:26:26;12.21;51.36
72650;SHT31;61467;50.674;4.618;2024-03-07T14:29:09;12.39;50.64
72650;SHT31;61467;50.674;4.618;2024-03-07T14:31:41;12.48;50.30
72650;SHT31;61467;50.674;4.618;2024-03-07T14:34:14;12.62;50.42
72650;SHT31;61467;50.674;4.618;2024-03-07T14:36:45;12.32;50.76
72650;SHT31;61467;50.674;4.618;2024-03-07T14:39:14;12.42;50.50
72650;SHT31;61467;50.674;4.618;2024-03-07T14:41:50;12.22;49.55
72650;SHT31;61467;50.674;4.618;2024-03-07T14:44:20;12.20;50.62
72650;SHT31;61467;50.674;4.618;2024-03-07T14:46:51;12.05;51.11
72650;SHT31;61467;50.674;4.618;2024-03-07T14:49:19;11.98;52.11
72650;SHT31;61467;50.674;4.618;2024-03-07T14:51:49;11.75;53.06
72650;SHT31;61467;50.674;4.618;2024-03-07T14:54:19;11.37;54.53
72650;SHT31;61467;50.674;4.618;2024-03-07T14:56:46;11.50;54.41
72650;SHT31;61467;50.674;4.618;2024-03-07T14:59:14;11.50;53.99
72650;SHT31;61467;50.674;4.618;2024-03-07T15:01:42;11.50;53.71
72650;SHT31;61467;50.674;4.618;2024-03-07T15:04:09;11.36;54.32
72650;SHT31;61467;50.674;4.618;2024-03-07T15:06:38;11.15;54.93
72650;SHT31;61467;50.674;4.618;2024-03-07T15:09:05;11.13;55.26
72650;SHT31;61467;50.674;4.618;2024-03-07T15:11:36;10.91;55.66
72650;SHT31;61467;50.674;4.618;2024-03-07T15:14:05;11.13;56.36
72650;SHT31;61467;50.674;4.618;2024-03-07T15:16:34;11.23;55.20
72650;SHT31;61467;50.674;4.618;2024-03-07T15:19:04;11.13;55.77
72650;SHT31;61467;50.674;4.618;2024-03-07T15:21:32;10.79;55.82
72650;SHT31;61467;50.674;4.618;2024-03-07T15:23:59;11.04;55.23
72650;SHT31;61467;50.674;4.618;2024-03-07T15:26:26;10.89;55.81
72650;SHT31;61467;50.674;4.618;2024-03-07T15:28:54;10.84;56.02
72650;SHT31;61467;50.674;4.618;2024-03-07T15:31:22;10.76;56.28
72650;SHT31;61467;50.674;4.618;2024-03-07T15:33:49;10.74;56.48
72650;SHT31;61467;50.674;4.618;2024-03-07T15:36:18;10.89;56.18
72650;SHT31;61467;50.674;4.618;2024-03-07T15:38:47;10.85;56.82
72650;SHT31;61467;50.674;4.618;2024-03-07T15:41:14;10.86;56.32
72650;SHT31;61467;50.674;4.618;2024-03-07T15:43:41;10.89;56.80
72650;SHT31;61467;50.674;4.618;2024-03-07T15:46:11;10.72;56.42
72650;SHT31;61467;50.674;4.618;2024-03-07T15:48:39;10.58;56.71
72650;SHT31;61467;50.674;4.618;2024-03-07T15:51:06;10.67;56.63
72650;SHT31;61467;50.674;4.618;2024-03-07T15:53:37;10.71;56.24
72650;SHT31;61467;50.674;4.618;2024-03-07T15:56:06;10.53;56.39
72650;SHT31;61467;50.674;4.618;2024-03-07T15:58:33;10.64;56.38
72650;SHT31;61467;50.674;4.618;2024-03-07T16:01:01;10.75;55.69